createdAt,value
2018-04-16T00:02:07.639Z,21.24
2018-04-16T00:04:33.592Z,21.23
2018-04-16T00:06:59.540Z,21.24
2018-04-16T00:09:25.480Z,21.22
2018-04-16T00:11:51.436Z,21.22
2018-04-16T00:14:17.399Z,21.27
2018-04-16T00:16:43.372Z,21.25
2018-04-16T00:19:09.319Z,21.29
2018-04-16T00:21:35.281Z,21.25
2018-04-16T00:24:01.244Z,21.28
2018-04-16T00:26:27.177Z,21.22
2018-04-16T00:28:53.128Z,21.26
2018-04-16T00:31:19.084Z,21.20
2018-04-16T00:33:45.029Z,21.21
2018-04-16T00:36:10.972Z,21.23
2018-04-16T00:38:36.914Z,21.21
2018-04-16T00:41:02.939Z,21.25
2018-04-16T00:43:28.889Z,21.23
2018-04-16T00:45:54.828Z,21.21
2018-04-16T00:48:20.825Z,21.27
2018-04-16T00:50:46.728Z,21.28
2018-04-16T00:53:12.699Z,21.25
2018-04-16T00:55:38.620Z,21.25
2018-04-16T00:58:04.572Z,21.25
2018-04-16T01:00:30.524Z,21.28
2018-04-16T01:02:56.468Z,21.29
2018-04-16T01:05:22.437Z,21.26
2018-04-16T01:07:48.368Z,21.24
2018-04-16T01:10:14.345Z,21.27
2018-04-16T01:12:40.275Z,21.27
2018-04-16T01:15:06.244Z,21.28
2018-04-16T01:17:32.187Z,21.24
2018-04-16T01:19:58.133Z,21.23
2018-04-16T01:22:24.098Z,21.18
2018-04-16T01:24:50.047Z,21.17
2018-04-16T01:27:15.985Z,21.21
2018-04-16T01:29:41.938Z,21.22
2018-04-16T01:32:07.878Z,21.23
2018-04-16T01:34:33.813Z,21.27
2018-04-16T01:36:59.748Z,21.30
2018-04-16T01:39:25.692Z,21.27
2018-04-16T01:41:51.636Z,21.25
2018-04-16T01:44:17.685Z,21.24
2018-04-16T01:46:43.632Z,21.26
2018-04-16T01:49:09.595Z,21.23
2018-04-16T01:51:35.571Z,21.26
2018-04-16T01:54:01.509Z,21.26
2018-04-16T01:56:27.489Z,21.27
2018-04-16T01:58:53.424Z,21.31
2018-04-16T02:01:19.363Z,21.23
2018-04-16T02:03:45.304Z,21.24
2018-04-16T02:06:11.247Z,21.22
2018-04-16T02:08:37.197Z,21.23
2018-04-16T02:11:03.141Z,21.18
2018-04-16T02:13:29.088Z,21.15
2018-04-16T02:15:55.076Z,21.17
2018-04-16T02:18:21.055Z,21.25
2018-04-16T02:20:47.010Z,21.23
2018-04-16T02:23:12.966Z,21.29
2018-04-16T02:25:38.909Z,21.26
2018-04-16T02:28:04.860Z,21.22
2018-04-16T02:30:30.809Z,21.24
2018-04-16T02:32:56.727Z,21.25
2018-04-16T02:35:22.670Z,21.25
2018-04-16T02:37:48.636Z,21.22
2018-04-16T02:40:14.656Z,21.27
2018-04-16T02:42:40.600Z,21.25
2018-04-16T02:45:06.545Z,21.29
2018-04-16T02:47:32.492Z,21.24
2018-04-16T02:49:58.436Z,21.26
2018-04-16T02:52:24.420Z,21.19
2018-04-16T02:54:50.408Z,21.21
2018-04-16T02:57:16.370Z,21.19
2018-04-16T02:59:42.309Z,21.19
2018-04-16T03:02:08.285Z,21.18
2018-04-16T03:04:34.231Z,21.22
2018-04-16T03:07:00.168Z,21.22
2018-04-16T03:09:26.107Z,21.23
2018-04-16T03:11:52.072Z,21.26
2018-04-16T03:14:18.039Z,21.24
2018-04-16T03:16:43.983Z,21.26
2018-04-16T03:19:09.940Z,21.26
2018-04-16T03:21:35.917Z,21.24
2018-04-16T03:24:01.861Z,21.23
2018-04-16T03:26:27.813Z,21.28
2018-04-16T03:28:53.752Z,21.26
2018-04-16T03:31:19.719Z,21.25
2018-04-16T03:33:45.652Z,21.26
2018-04-16T03:36:11.691Z,21.24
2018-04-16T03:38:37.649Z,21.29
2018-04-16T03:41:03.597Z,21.22
2018-04-16T03:43:29.532Z,21.31
2018-04-16T03:45:55.473Z,21.17
2018-04-16T03:48:21.412Z,21.19
2018-04-16T03:50:47.371Z,21.19
2018-04-16T03:53:13.316Z,21.17
2018-04-16T03:55:39.260Z,21.21
2018-04-16T03:58:05.200Z,21.22
2018-04-16T04:00:31.156Z,21.38
2018-04-16T04:02:57.151Z,21.20
2018-04-16T04:05:23.116Z,21.25
2018-04-16T04:07:49.075Z,21.23
2018-04-16T04:10:15.048Z,21.23
2018-04-16T04:12:41.003Z,21.25
2018-04-16T04:15:06.940Z,21.22
2018-04-16T04:17:32.928Z,21.23
2018-04-16T04:19:58.861Z,21.24
2018-04-16T04:22:24.843Z,21.21
2018-04-16T04:24:50.773Z,21.19
2018-04-16T04:27:16.712Z,21.20
2018-04-16T04:29:42.698Z,21.17
2018-04-16T04:32:08.648Z,21.17
2018-04-16T04:34:34.589Z,21.17
2018-04-16T04:37:00.568Z,21.18
2018-04-16T04:39:26.539Z,21.12
2018-04-16T04:41:52.500Z,21.13
2018-04-16T04:44:18.451Z,21.20
2018-04-16T04:46:44.420Z,21.24
2018-04-16T04:49:10.357Z,21.25
2018-04-16T04:51:36.309Z,21.23
2018-04-16T04:54:02.271Z,21.18
2018-04-16T04:56:28.208Z,21.24
2018-04-16T04:58:54.168Z,21.18
2018-04-16T05:01:20.112Z,21.20
2018-04-16T05:03:46.076Z,21.23
2018-04-16T05:06:12.016Z,21.27
2018-04-16T05:08:37.953Z,21.22
2018-04-16T05:11:03.888Z,21.27
2018-04-16T05:13:29.831Z,21.23
2018-04-16T05:15:55.796Z,21.25
2018-04-16T05:18:21.752Z,21.18
2018-04-16T05:20:47.697Z,21.18
2018-04-16T05:23:13.636Z,21.17
2018-04-16T05:25:39.596Z,21.15
2018-04-16T05:28:05.543Z,21.17
2018-04-16T05:30:31.503Z,21.19
2018-04-16T05:32:57.458Z,21.22
2018-04-16T05:35:23.401Z,21.22
2018-04-16T05:37:49.339Z,21.22
2018-04-16T05:40:15.281Z,21.19
2018-04-16T05:42:41.233Z,21.20
2018-04-16T05:45:07.181Z,21.20
2018-04-16T05:47:33.178Z,21.21
2018-04-16T05:49:59.120Z,21.23
2018-04-16T05:52:25.069Z,21.25
2018-04-16T05:54:51.009Z,21.18
2018-04-16T05:57:16.951Z,21.22
2018-04-16T05:59:42.860Z,21.26
2018-04-16T06:02:08.805Z,21.25
2018-04-16T06:04:34.772Z,21.22
2018-04-16T06:07:00.789Z,21.17
2018-04-16T06:09:26.740Z,21.18
2018-04-16T06:11:52.698Z,21.22
2018-04-16T06:14:18.640Z,21.13
2018-04-16T06:16:44.620Z,21.15
2018-04-16T06:19:10.610Z,21.19
2018-04-16T06:21:36.512Z,21.26
2018-04-16T06:24:02.460Z,21.25
2018-04-16T06:26:28.435Z,21.23
2018-04-16T06:28:54.381Z,21.24
2018-04-16T06:31:20.315Z,21.26
2018-04-16T06:33:46.282Z,21.24
2018-04-16T06:36:12.279Z,21.20
2018-04-16T06:38:38.232Z,21.19
2018-04-16T06:41:04.184Z,21.25
2018-04-16T06:43:30.152Z,21.24
2018-04-16T06:45:56.116Z,21.24
2018-04-16T06:48:22.073Z,21.28
2018-04-16T06:50:48.012Z,21.29
2018-04-16T06:53:13.995Z,21.21
2018-04-16T06:55:39.963Z,21.22
2018-04-16T06:58:05.936Z,21.21
2018-04-16T07:00:31.902Z,21.22
2018-04-16T07:02:57.918Z,21.15
2018-04-16T07:05:23.969Z,21.19
2018-04-16T07:07:49.947Z,21.21
2018-04-16T07:10:15.884Z,21.17
2018-04-16T07:12:41.853Z,21.20
2018-04-16T07:15:07.857Z,21.24
2018-04-16T07:17:33.809Z,21.27
2018-04-16T07:19:59.817Z,21.20
2018-04-16T07:22:25.837Z,21.25
2018-04-16T07:24:51.727Z,21.19
2018-04-16T07:27:17.745Z,21.19
2018-04-16T07:29:43.680Z,21.17
2018-04-16T07:32:09.628Z,21.19
2018-04-16T07:34:35.840Z,21.17
2018-04-16T07:37:01.786Z,21.17
2018-04-16T07:39:27.719Z,21.15
2018-04-16T07:41:53.665Z,21.13
2018-04-16T07:44:19.615Z,21.17
2018-04-16T07:46:45.574Z,21.24
2018-04-16T07:49:11.521Z,21.45
2018-04-16T07:51:37.484Z,21.34
2018-04-16T07:54:03.436Z,21.23
2018-04-16T07:56:29.393Z,21.25
2018-04-16T07:58:55.332Z,21.23
2018-04-16T08:01:21.334Z,21.20
2018-04-16T08:03:47.228Z,21.24
2018-04-16T08:06:13.240Z,21.23
2018-04-16T08:08:39.217Z,21.25
2018-04-16T08:11:05.176Z,21.24
2018-04-16T08:13:31.117Z,21.27
2018-04-16T08:15:57.060Z,21.25
2018-04-16T08:18:23.132Z,21.26
2018-04-16T08:20:49.088Z,21.28
2018-04-16T08:23:15.036Z,21.37
2018-04-16T08:25:41.068Z,21.37
2018-04-16T08:28:07.144Z,21.42
2018-04-16T08:30:33.098Z,21.41
2018-04-16T08:32:59.048Z,21.35
2018-04-16T08:35:25.009Z,21.39
2018-04-16T08:37:50.956Z,21.37
2018-04-16T08:40:16.916Z,21.42
2018-04-16T08:42:42.967Z,21.46
2018-04-16T08:45:08.916Z,21.43
2018-04-16T08:47:34.887Z,21.46
2018-04-16T08:50:00.948Z,21.43
2018-04-16T08:52:26.912Z,21.44
2018-04-16T08:54:52.856Z,21.46
2018-04-16T08:57:18.815Z,21.55
2018-04-16T08:59:44.859Z,21.52
2018-04-16T09:02:10.817Z,21.55
2018-04-16T09:04:37.214Z,21.49
2018-04-16T09:07:03.376Z,21.51
2018-04-16T09:09:29.366Z,21.58
2018-04-16T09:11:55.300Z,21.56
2018-04-16T09:14:21.256Z,21.73
2018-04-16T09:16:47.204Z,21.56
2018-04-16T09:19:13.174Z,21.57
2018-04-16T09:21:39.117Z,21.51
2018-04-16T09:24:05.053Z,21.53
2018-04-16T09:26:30.988Z,21.54
2018-04-16T09:28:56.955Z,21.56
2018-04-16T09:31:22.902Z,21.62
2018-04-16T09:33:48.840Z,21.62
2018-04-16T09:36:14.871Z,21.60
2018-04-16T09:38:40.832Z,21.57
2018-04-16T09:41:06.784Z,21.57
2018-04-16T09:43:32.739Z,21.57
2018-04-16T09:45:58.720Z,21.58
2018-04-16T09:48:24.661Z,21.62
2018-04-16T09:50:50.659Z,21.59
2018-04-16T09:53:16.636Z,21.60
2018-04-16T09:55:42.584Z,21.59
2018-04-16T09:58:08.635Z,21.58
2018-04-16T10:00:34.604Z,21.59
2018-04-16T10:03:00.548Z,21.62
2018-04-16T10:05:26.493Z,21.65
2018-04-16T10:07:52.436Z,21.59
2018-04-16T10:10:18.369Z,21.56
2018-04-16T10:12:44.352Z,21.59
2018-04-16T10:15:10.289Z,21.60
2018-04-16T10:17:36.237Z,21.56
2018-04-16T10:20:02.184Z,21.62
2018-04-16T10:22:28.128Z,21.67
2018-04-16T10:24:54.079Z,21.76
2018-04-16T10:27:20.079Z,21.60
2018-04-16T10:29:46.040Z,21.56
2018-04-16T10:32:12.012Z,21.51
2018-04-16T10:34:37.965Z,21.54
2018-04-16T10:37:03.967Z,21.53
2018-04-16T10:39:29.998Z,21.50
2018-04-16T10:41:56.029Z,21.50
2018-04-16T10:44:21.985Z,21.52
2018-04-16T10:46:47.985Z,21.51
2018-04-16T10:49:13.949Z,21.58
2018-04-16T10:51:39.892Z,21.58
2018-04-16T10:54:05.859Z,21.63
2018-04-16T10:56:31.908Z,21.61
2018-04-16T10:58:57.870Z,21.58
2018-04-16T11:01:23.823Z,21.59
2018-04-16T11:03:49.792Z,21.75
2018-04-16T11:06:15.749Z,21.63
2018-04-16T11:08:41.693Z,21.62
2018-04-16T11:11:07.657Z,21.57
2018-04-16T11:13:33.612Z,21.55
2018-04-16T11:15:59.560Z,21.54
2018-04-16T11:18:25.523Z,21.54
2018-04-16T11:20:51.476Z,21.48
2018-04-16T11:23:17.433Z,21.49
2018-04-16T11:25:43.391Z,21.49
2018-04-16T11:28:09.321Z,21.49
2018-04-16T11:30:35.279Z,21.46
2018-04-16T11:33:01.234Z,21.52
2018-04-16T11:35:27.221Z,21.53
2018-04-16T11:37:53.223Z,21.50
2018-04-16T11:40:19.136Z,21.47
2018-04-16T11:42:45.077Z,21.45
2018-04-16T11:45:11.014Z,21.44
2018-04-16T11:47:36.961Z,21.42
2018-04-16T11:50:02.916Z,21.39
2018-04-16T11:52:28.883Z,21.39
2018-04-16T11:54:54.849Z,21.42
2018-04-16T11:57:20.833Z,21.39
2018-04-16T11:59:46.792Z,21.39
2018-04-16T12:02:12.741Z,21.43
2018-04-16T12:04:38.738Z,21.42
2018-04-16T12:07:04.667Z,21.40
2018-04-16T12:09:30.623Z,21.39
2018-04-16T12:11:56.571Z,21.41
2018-04-16T12:14:22.533Z,21.39
2018-04-16T12:16:48.491Z,21.39
2018-04-16T12:19:14.524Z,21.55
2018-04-16T12:21:40.460Z,21.47
2018-04-16T12:24:06.405Z,21.52
2018-04-16T12:26:32.367Z,21.51
2018-04-16T12:28:58.324Z,21.55
2018-04-16T12:31:24.293Z,21.53
2018-04-16T12:33:50.243Z,21.56
2018-04-16T12:36:16.179Z,21.55
2018-04-16T12:38:42.132Z,21.54
2018-04-16T12:41:08.093Z,21.50
2018-04-16T12:43:34.036Z,21.52
2018-04-16T12:45:59.975Z,21.50
2018-04-16T12:48:25.926Z,21.50
2018-04-16T12:50:51.891Z,21.48
2018-04-16T12:53:17.823Z,21.51
2018-04-16T12:55:43.763Z,21.56
2018-04-16T12:58:09.709Z,21.54
2018-04-16T13:00:35.649Z,21.52
2018-04-16T13:03:01.619Z,21.52
2018-04-16T13:05:27.585Z,21.56
2018-04-16T13:07:53.585Z,21.51
2018-04-16T13:10:19.499Z,21.51
2018-04-16T13:12:45.428Z,21.50
2018-04-16T13:15:11.398Z,21.53
2018-04-16T13:17:37.376Z,21.56
2018-04-16T13:20:03.345Z,21.59
2018-04-16T13:22:29.290Z,21.65
2018-04-16T13:24:55.253Z,21.64
2018-04-16T13:27:21.219Z,21.64
2018-04-16T13:29:47.208Z,21.63
2018-04-16T13:32:13.160Z,21.64
2018-04-16T13:34:39.112Z,21.68
2018-04-16T13:37:05.056Z,21.62
2018-04-16T13:39:31.011Z,21.64
2018-04-16T13:41:56.989Z,21.73
2018-04-16T13:44:22.941Z,21.83
2018-04-16T13:46:48.913Z,21.62
2018-04-16T13:49:14.863Z,21.57
2018-04-16T13:51:40.819Z,21.77
2018-04-16T13:54:06.785Z,21.62
2018-04-16T13:56:32.741Z,21.59
2018-04-16T13:58:58.745Z,21.72
2018-04-16T14:01:24.700Z,21.61
2018-04-16T14:03:50.663Z,21.60
2018-04-16T14:06:16.620Z,21.76
2018-04-16T14:08:42.636Z,21.69
2018-04-16T14:11:08.606Z,21.70
2018-04-16T14:13:34.577Z,21.71
2018-04-16T14:16:00.519Z,21.68
2018-04-16T14:18:26.467Z,21.69
2018-04-16T14:20:52.429Z,21.67
2018-04-16T14:23:18.384Z,21.64
2018-04-16T14:25:44.332Z,21.67
2018-04-16T14:28:10.277Z,21.64
2018-04-16T14:30:36.221Z,21.65
2018-04-16T14:33:02.172Z,21.70
2018-04-16T14:35:28.114Z,21.82
2018-04-16T14:37:54.056Z,21.66
2018-04-16T14:40:20.005Z,21.78
2018-04-16T14:42:45.932Z,21.65
2018-04-16T14:45:11.961Z,21.64
2018-04-16T14:47:37.908Z,21.80
2018-04-16T14:50:03.892Z,21.65
2018-04-16T14:52:29.856Z,21.63
2018-04-16T14:54:55.808Z,21.64
2018-04-16T14:57:21.744Z,21.61
2018-04-16T14:59:47.710Z,21.60
2018-04-16T15:02:13.672Z,21.56
2018-04-16T15:04:39.620Z,21.52
2018-04-16T15:07:05.563Z,21.48
2018-04-16T15:09:31.537Z,21.47
2018-04-16T15:11:57.472Z,21.46
2018-04-16T15:14:23.416Z,21.47
2018-04-16T15:16:49.387Z,21.51
2018-04-16T15:19:15.344Z,21.46
2018-04-16T15:21:41.304Z,21.44
2018-04-16T15:24:07.349Z,21.51
2018-04-16T15:26:33.304Z,21.49
2018-04-16T15:28:59.279Z,21.53
2018-04-16T15:31:25.232Z,21.53
2018-04-16T15:33:51.202Z,21.62
2018-04-16T15:36:17.168Z,21.65
2018-04-16T15:38:43.168Z,21.64
2018-04-16T15:41:09.141Z,21.63
2018-04-16T15:43:35.060Z,21.59
2018-04-16T15:46:01.008Z,21.52
2018-04-16T15:48:26.999Z,21.46
2018-04-16T15:50:52.920Z,21.48
2018-04-16T15:53:18.880Z,21.43
2018-04-16T15:55:44.813Z,21.39
2018-04-16T15:58:10.765Z,21.38
2018-04-16T16:00:36.837Z,21.45
2018-04-16T16:03:02.772Z,21.47
2018-04-16T16:05:28.745Z,21.40
2018-04-16T16:07:54.732Z,21.40
2018-04-16T16:10:20.705Z,21.40
2018-04-16T16:12:46.652Z,21.37
2018-04-16T16:15:12.668Z,21.38
2018-04-16T16:17:38.580Z,21.38
2018-04-16T16:20:04.519Z,21.32
2018-04-16T16:22:30.484Z,21.36
2018-04-16T16:24:56.435Z,21.34
2018-04-16T16:27:24.269Z,21.34
2018-04-16T16:29:50.205Z,21.32
2018-04-16T16:32:16.149Z,21.35
2018-04-16T16:34:42.121Z,21.35
2018-04-16T16:37:08.130Z,21.32
2018-04-16T16:39:34.085Z,21.33
2018-04-16T16:42:00.020Z,21.29
2018-04-16T16:44:25.995Z,21.28
2018-04-16T16:46:51.940Z,21.27
2018-04-16T16:49:17.881Z,21.29
2018-04-16T16:51:43.837Z,21.28
2018-04-16T16:54:09.832Z,21.29
2018-04-16T16:56:35.749Z,21.32
2018-04-16T16:59:01.694Z,21.30
2018-04-16T17:01:28.677Z,21.34
2018-04-16T17:03:54.624Z,21.38
2018-04-16T17:06:20.624Z,21.32
2018-04-16T17:08:46.570Z,21.33
2018-04-16T17:11:12.544Z,21.33
2018-04-16T17:13:38.569Z,21.35
2018-04-16T17:16:04.521Z,21.33
2018-04-16T17:18:30.468Z,21.34
2018-04-16T17:20:56.428Z,21.33
2018-04-16T17:23:22.370Z,21.33
2018-04-16T17:25:48.325Z,21.34
2018-04-16T17:28:14.265Z,21.30
2018-04-16T17:30:40.235Z,21.27
2018-04-16T17:33:06.200Z,21.27
2018-04-16T17:35:32.134Z,21.25
2018-04-16T17:37:58.099Z,21.29
2018-04-16T17:40:24.100Z,21.29
2018-04-16T17:42:50.053Z,21.27
2018-04-16T17:45:15.989Z,21.28
2018-04-16T17:47:42.016Z,21.32
2018-04-16T17:50:07.985Z,21.30
2018-04-16T17:52:33.947Z,21.30
2018-04-16T17:54:59.937Z,21.31
2018-04-16T17:57:25.917Z,21.30
2018-04-16T17:59:51.866Z,21.33
2018-04-16T18:02:17.832Z,21.32
2018-04-16T18:04:43.782Z,21.33
2018-04-16T18:07:09.757Z,21.31
2018-04-16T18:09:35.703Z,21.32
2018-04-16T18:12:01.645Z,21.30
2018-04-16T18:14:27.592Z,21.31
2018-04-16T18:16:53.540Z,21.32
2018-04-16T18:19:19.525Z,21.29
2018-04-16T18:21:45.465Z,21.24
2018-04-16T18:24:11.429Z,21.22
2018-04-16T18:26:37.391Z,21.24
2018-04-16T18:29:03.355Z,21.26
2018-04-16T18:31:29.309Z,21.26
2018-04-16T18:33:55.246Z,21.30
2018-04-16T18:36:21.260Z,21.30
2018-04-16T18:38:47.215Z,21.29
2018-04-16T18:41:13.178Z,21.30
2018-04-16T18:43:39.150Z,21.32
2018-04-16T18:46:05.133Z,21.29
2018-04-16T18:48:31.088Z,21.30
2018-04-16T18:50:57.107Z,21.30
2018-04-16T18:53:23.064Z,21.32
2018-04-16T18:55:49.020Z,21.31
2018-04-16T18:58:14.988Z,21.30
2018-04-16T19:00:40.928Z,21.30
2018-04-16T19:03:06.908Z,21.32
2018-04-16T19:05:32.861Z,21.33
2018-04-16T19:07:58.839Z,21.25
2018-04-16T19:10:24.791Z,21.23
2018-04-16T19:12:50.725Z,21.25
2018-04-16T19:15:16.681Z,21.27
2018-04-16T19:17:42.653Z,21.26
2018-04-16T19:20:08.665Z,21.27
2018-04-16T19:22:34.613Z,21.28
2018-04-16T19:25:00.602Z,21.28
2018-04-16T19:27:26.588Z,21.29
2018-04-16T19:29:52.548Z,21.26
2018-04-16T19:32:18.628Z,21.27
2018-04-16T19:34:44.567Z,21.28
2018-04-16T19:37:10.537Z,21.28
2018-04-16T19:39:36.489Z,21.26
2018-04-16T19:42:02.472Z,21.37
2018-04-16T19:44:28.416Z,21.34
2018-04-16T19:46:54.369Z,21.29
2018-04-16T19:49:20.357Z,21.28
2018-04-16T19:51:46.307Z,21.24
2018-04-16T19:54:12.289Z,21.22
2018-04-16T19:56:38.242Z,21.21
2018-04-16T19:59:04.188Z,21.17
2018-04-16T20:01:30.133Z,21.16
2018-04-16T20:03:56.103Z,21.17
2018-04-16T20:06:22.076Z,21.16
2018-04-16T20:08:48.039Z,21.17
2018-04-16T20:11:14.001Z,21.21
2018-04-16T20:13:39.948Z,21.22
2018-04-16T20:16:05.958Z,21.20
2018-04-16T20:18:31.921Z,21.20
2018-04-16T20:20:57.884Z,21.21
2018-04-16T20:23:23.847Z,21.20
2018-04-16T20:25:49.771Z,21.24
2018-04-16T20:28:15.757Z,21.21
2018-04-16T20:30:41.707Z,21.37
2018-04-16T20:33:07.685Z,21.29
2018-04-16T20:35:33.631Z,21.27
2018-04-16T20:37:59.609Z,21.38
2018-04-16T20:40:25.575Z,21.40
2018-04-16T20:42:51.524Z,21.42
2018-04-16T20:45:17.502Z,21.39
2018-04-16T20:47:43.453Z,21.50
2018-04-16T20:50:09.490Z,21.58
2018-04-16T20:52:35.520Z,21.60
2018-04-16T20:55:01.569Z,21.60
2018-04-16T20:57:27.589Z,21.60
2018-04-16T20:59:53.615Z,21.65
2018-04-16T21:02:19.555Z,21.66
2018-04-16T21:04:45.493Z,21.51
2018-04-16T21:07:11.476Z,21.49
2018-04-16T21:09:37.421Z,21.49
2018-04-16T21:12:03.397Z,21.70
2018-04-16T21:14:29.364Z,21.54
2018-04-16T21:16:55.363Z,21.48
2018-04-16T21:19:21.528Z,21.46
2018-04-16T21:21:47.479Z,21.42
2018-04-16T21:24:13.436Z,21.42
2018-04-16T21:26:39.516Z,21.46
2018-04-16T21:29:05.473Z,21.41
2018-04-16T21:31:31.428Z,21.38
2018-04-16T21:33:57.384Z,21.38
2018-04-16T21:36:23.319Z,21.38
2018-04-16T21:38:49.257Z,21.42
2018-04-16T21:41:15.213Z,21.42
2018-04-16T21:43:41.172Z,21.44
2018-04-16T21:46:07.232Z,21.38
2018-04-16T21:48:33.200Z,21.36
2018-04-16T21:50:59.208Z,21.39
2018-04-16T21:53:25.179Z,21.42
2018-04-16T21:55:51.233Z,21.40
2018-04-16T21:58:17.188Z,21.40
2018-04-16T22:00:43.159Z,21.41
2018-04-16T22:03:09.164Z,21.42
2018-04-16T22:05:35.115Z,21.42
2018-04-16T22:08:01.035Z,21.42
2018-04-16T22:10:27.018Z,21.39
2018-04-16T22:12:52.956Z,21.38
2018-04-16T22:15:18.908Z,21.40
2018-04-16T22:17:44.868Z,21.38
2018-04-16T22:20:10.823Z,21.36
2018-04-16T22:22:36.800Z,21.36
2018-04-16T22:25:02.740Z,21.34
2018-04-16T22:27:28.821Z,21.36
2018-04-16T22:29:54.772Z,21.34
2018-04-16T22:32:20.735Z,21.32
2018-04-16T22:34:46.918Z,21.40
2018-04-16T22:37:13.028Z,21.42
2018-04-16T22:39:38.966Z,21.31
2018-04-16T22:42:04.944Z,21.33
2018-04-16T22:44:30.888Z,21.35
2018-04-16T22:46:56.849Z,21.35
2018-04-16T22:49:22.808Z,21.36
2018-04-16T22:51:48.779Z,21.36
2018-04-16T22:54:14.728Z,21.36
2018-04-16T22:56:40.681Z,21.32
2018-04-16T22:59:06.630Z,21.33
2018-04-16T23:01:32.576Z,21.31
2018-04-16T23:03:58.537Z,21.29
2018-04-16T23:06:24.496Z,21.31
2018-04-16T23:08:50.456Z,21.30
2018-04-16T23:11:16.415Z,21.28
2018-04-16T23:13:42.375Z,21.26
2018-04-16T23:16:08.359Z,21.27
2018-04-16T23:18:34.332Z,21.28
2018-04-16T23:21:00.268Z,21.29
2018-04-16T23:23:26.216Z,21.28
2018-04-16T23:25:52.163Z,21.28
2018-04-16T23:28:18.105Z,21.27
2018-04-16T23:30:44.056Z,21.26
2018-04-16T23:33:10.029Z,21.26
2018-04-16T23:35:35.961Z,21.25
2018-04-16T23:38:01.927Z,21.30
2018-04-16T23:40:27.875Z,21.32
2018-04-16T23:42:53.847Z,21.32
2018-04-16T23:45:19.785Z,21.28
2018-04-16T23:47:45.731Z,21.26
2018-04-16T23:50:11.686Z,21.25
2018-04-16T23:52:37.673Z,21.30
2018-04-16T23:55:03.612Z,21.27
2018-04-16T23:57:29.551Z,21.29
2018-04-16T23:59:55.500Z,21.28
